Aérodrome :
LOGIN :

S'inscrire | Disclaimer

   EN    FR    IT 

 










Légende :    VFR   VFR Marginal   IFR   IFR Intensif   IFR Très Intensif
Visi : 
Plafond : 
>= 8 km
>= 3000ft
5 à 8 km
1000 à 3000 ft
1500m à 5 km
500 à 1000 ft
800 à 1500m
200 à 500 ft
< 800m
< 200 ft
Symboles :   Orages  Brouillard  Fortes neiges  Fortes précipitations  Vent > 20 kt
SIGMETs :   Divers  Orages  Givrage  Turbulence  Onde Orograph.  Cendres Volcan.







- Altitude de l'aérodrome : 336 ft
- Code IATA : GCI
- Voir les cartes d'approche


EGJB - Guernsey

DERNIER METAR :
  • 180620Z 23011KT 9999 -RA FEW025 BKN048 09/07 Q1016

METARs EXPIRÉS :
  • 180550Z 22010KT 9999 -RA FEW030 09/08 Q1016
  • 180520Z 21009KT 9999 FEW030 09/08 Q1016
  • 180450Z 20008KT 9999 FEW030 09/08 Q1016
  • 180420Z 21008KT 9999 FEW030 09/08 Q1016
  • 180350Z 21008KT 9999 FEW030 09/08 Q1016

TAF TAF EGJB
Valide du 18 à 06h jusqu'au 18 à 15h UTC


180503Z 1806/1815 21008KT 9999 FEW012 BKN035
BECMG 1806/1808 -RA BKN012
TEMPO 1807/1814 4000 -RADZ BKN004
PROB40
TEMPO 1807/1813 2000 RADZ BR BKN002
ATIS : +44 1481 238 957
Pas de NOTAMs connus pour ce terrain.



MET'MAP, la Météo Aéronautique d'un coup d'oeil ! - Copyright ORBIFLY Décembre 2007 - Disclaimer

ORBIFLY MET'MAP TEAM :

Programmation & Développement : Alexandra Zaïnal
Conception & Développement : Baudouin d'Aumeries
Co-Programmation & Développement : Marc-Olivier Méhu
Soutien technique & logistique : Manuel Goepfert

Contact : metmap@orbifly.com




SOURCES & CREDITS :

   NOAA